createdAt,value
2022-08-21T00:00:00.596Z,100698.72
2022-08-21T00:03:06.166Z,100693.59
2022-08-21T00:06:07.873Z,100682.34
2022-08-21T00:09:15.834Z,100677.22
2022-08-21T00:12:17.446Z,100665.69
2022-08-21T00:15:27.414Z,100658.25
2022-08-21T00:18:29.147Z,100661.41
2022-08-21T00:21:30.824Z,100658.97
2022-08-21T00:24:32.407Z,100665.69
2022-08-21T00:27:34.695Z,100656.13
2022-08-21T00:30:36.607Z,100670.50
2022-08-21T00:33:38.786Z,100667.94
2022-08-21T00:36:40.940Z,100672.66
2022-08-21T00:39:42.666Z,100667.81
2022-08-21T00:42:44.935Z,100673.75
2022-08-21T00:45:56.802Z,100666.22
2022-08-21T00:48:59.449Z,100672.06
2022-08-21T00:52:02.387Z,100675.88
2022-08-21T00:55:07.805Z,100676.63
2022-08-21T00:58:13.480Z,100673.31
2022-08-21T01:01:15.663Z,100672.63
2022-08-21T01:04:17.980Z,100683.56
2022-08-21T01:07:20.976Z,100683.44
2022-08-21T01:10:24.743Z,100684.69
2022-08-21T01:13:28.529Z,100672.19
2022-08-21T01:16:30.307Z,100684.63
2022-08-21T01:19:32.320Z,100680.53
2022-08-21T01:22:34.004Z,100682.63
2022-08-21T01:25:36.221Z,100682.63
2022-08-21T01:28:42.930Z,100677.38
2022-08-21T01:31:45.103Z,100680.34
2022-08-21T01:34:48.766Z,100676.94
2022-08-21T01:37:50.467Z,100685.16
2022-08-21T01:40:52.308Z,100670.22
2022-08-21T01:43:53.914Z,100675.50
2022-08-21T01:46:57.109Z,100678.59
2022-08-21T01:49:58.794Z,100671.63
2022-08-21T01:53:00.581Z,100670.78
2022-08-21T01:56:03.004Z,100667.78
2022-08-21T01:59:04.773Z,100660.69
2022-08-21T02:02:06.731Z,100661.97
2022-08-21T02:05:10.435Z,100655.00
2022-08-21T02:08:12.365Z,100653.03
2022-08-21T02:11:14.174Z,100655.84
2022-08-21T02:14:32.406Z,100657.59
2022-08-21T02:17:46.792Z,100653.03
2022-08-21T02:20:55.792Z,100648.47
2022-08-21T02:23:58.616Z,100652.88
2022-08-21T02:27:00.273Z,100645.66
2022-08-21T02:30:02.001Z,100633.97
2022-08-21T02:33:03.661Z,100632.38
2022-08-21T02:36:05.810Z,100640.50
2022-08-21T02:39:07.419Z,100635.38
2022-08-21T02:42:09.073Z,100635.25
2022-08-21T02:45:12.182Z,100637.09
2022-08-21T02:48:22.314Z,100638.78
2022-08-21T02:51:24.011Z,100631.69
2022-08-21T02:54:25.677Z,100627.25
2022-08-21T02:57:27.384Z,100623.59
2022-08-21T03:00:30.550Z,100630.41
2022-08-21T03:03:32.207Z,100623.16
2022-08-21T03:06:34.690Z,100617.63
2022-08-21T03:09:36.280Z,100620.19
2022-08-21T03:12:37.949Z,100614.06
2022-08-21T03:15:41.010Z,100616.78
2022-08-21T03:18:42.702Z,100617.19
2022-08-21T03:21:44.416Z,100617.31
2022-08-21T03:24:46.214Z,100619.44
2022-08-21T03:27:49.854Z,100618.00
2022-08-21T03:30:55.116Z,100618.88
2022-08-21T03:33:57.491Z,100612.88
2022-08-21T03:36:59.511Z,100623.69
2022-08-21T03:40:01.267Z,100619.28
2022-08-21T03:43:02.948Z,100619.28
2022-08-21T03:46:06.261Z,100624.41
2022-08-21T03:49:07.942Z,100621.41
2022-08-21T03:52:09.910Z,100612.59
2022-08-21T03:55:11.620Z,100621.41
2022-08-21T03:58:16.155Z,100618.00
2022-08-21T04:01:18.735Z,100625.97
2022-08-21T04:04:20.413Z,100621.56
2022-08-21T04:07:21.995Z,100626.97
2022-08-21T04:10:25.450Z,100630.66
2022-08-21T04:13:29.101Z,100632.38
2022-08-21T04:16:31.848Z,100636.50
2022-08-21T04:19:33.513Z,100629.25
2022-08-21T04:22:35.180Z,100628.28
2022-08-21T04:25:36.992Z,100635.09
2022-08-21T04:28:38.735Z,100630.56
2022-08-21T04:31:40.393Z,100631.84
2022-08-21T04:34:41.990Z,100631.28
2022-08-21T04:37:43.613Z,100637.28
2022-08-21T04:40:45.535Z,100634.56
2022-08-21T04:43:47.518Z,100638.59
2022-08-21T04:46:49.126Z,100633.22
2022-08-21T04:49:51.909Z,100629.38
2022-08-21T04:52:54.381Z,100631.78
2022-08-21T04:56:01.637Z,100644.31
2022-08-21T04:59:07.315Z,100648.44
2022-08-21T05:02:10.357Z,100639.03
2022-08-21T05:05:12.246Z,100638.91
2022-08-21T05:08:18.865Z,100643.16
2022-08-21T05:11:21.092Z,100639.72
2022-08-21T05:14:22.971Z,100636.84
2022-08-21T05:17:24.598Z,100640.13
2022-08-21T05:20:26.289Z,100637.31
2022-08-21T05:23:27.935Z,100633.69
2022-08-21T05:26:29.587Z,100641.47
2022-08-21T05:29:32.367Z,100642.09
2022-08-21T05:32:35.057Z,100647.31
2022-08-21T05:35:38.486Z,100644.69
2022-08-21T05:38:40.237Z,100644.91
2022-08-21T05:41:41.890Z,100650.72
2022-08-21T05:44:43.941Z,100651.13
2022-08-21T05:47:47.043Z,100655.38
2022-08-21T05:50:50.305Z,100661.09
2022-08-21T05:53:51.985Z,100657.94
2022-08-21T05:56:53.831Z,100664.59
2022-08-21T05:59:55.431Z,100668.72
2022-08-21T06:02:57.186Z,100672.09
2022-08-21T06:05:59.419Z,100682.66
2022-08-21T06:09:01.034Z,100685.38
2022-08-21T06:12:11.837Z,100691.81
2022-08-21T06:15:13.466Z,100696.00
2022-08-21T06:18:15.716Z,100693.41
2022-08-21T06:21:17.489Z,100696.44
2022-08-21T06:24:19.122Z,100691.31
2022-08-21T06:27:24.750Z,100686.09
2022-08-21T06:30:28.437Z,100691.19
2022-08-21T06:33:32.731Z,100684.91
2022-08-21T06:36:34.836Z,100690.53
2022-08-21T06:39:36.540Z,100684.19
2022-08-21T06:42:38.236Z,100683.75
2022-08-21T06:45:43.534Z,100681.97
2022-08-21T06:48:45.134Z,100677.13
2022-08-21T06:51:46.710Z,100677.72
2022-08-21T06:54:48.392Z,100684.28
2022-08-21T06:57:52.391Z,100671.13
2022-08-21T07:00:58.701Z,100682.72
2022-08-21T07:04:03.279Z,100680.75
2022-08-21T07:07:04.941Z,100665.63
2022-08-21T07:10:06.816Z,100678.41
2022-08-21T07:13:08.501Z,100665.44
2022-08-21T07:16:10.093Z,100672.25
2022-08-21T07:19:11.756Z,100666.31
2022-08-21T07:22:17.187Z,100665.09
2022-08-21T07:25:18.900Z,100664.28
2022-08-21T07:28:20.627Z,100663.91
2022-08-21T07:31:24.552Z,100661.69
2022-08-21T07:34:26.189Z,100651.16
2022-08-21T07:37:27.901Z,100647.22
2022-08-21T07:40:29.527Z,100653.34
2022-08-21T07:43:31.198Z,100656.56
2022-08-21T07:46:32.932Z,100646.00
2022-08-21T07:49:34.614Z,100652.31
2022-08-21T07:52:36.200Z,100644.25
2022-08-21T07:55:37.824Z,100640.84
2022-08-21T07:58:39.508Z,100653.59
2022-08-21T08:01:41.556Z,100648.09
2022-08-21T08:04:50.918Z,100636.50
2022-08-21T08:07:52.976Z,100639.41
2022-08-21T08:10:58.040Z,100634.56
2022-08-21T08:14:00.458Z,100637.78
2022-08-21T08:17:03.376Z,100643.06
2022-08-21T08:20:07.510Z,100642.34
2022-08-21T08:23:14.071Z,100638.91
2022-08-21T08:26:16.771Z,100637.53
2022-08-21T08:29:18.338Z,100630.72
2022-08-21T08:32:20.525Z,100630.66
2022-08-21T08:35:24.164Z,100627.75
2022-08-21T08:38:26.458Z,100630.44
2022-08-21T08:41:30.833Z,100623.81
2022-08-21T08:44:32.773Z,100624.13
2022-08-21T08:47:39.741Z,100619.44
2022-08-21T08:50:55.647Z,100628.97
2022-08-21T08:54:03.829Z,100622.41
2022-08-21T08:57:11.042Z,100619.25
2022-08-21T09:00:16.659Z,100612.50
2022-08-21T09:03:19.543Z,100605.81
2022-08-21T09:06:30.368Z,100611.41
2022-08-21T09:10:01.450Z,100612.88
2022-08-21T09:13:16.456Z,100612.22
2022-08-21T09:16:24.244Z,100602.53
2022-08-21T09:19:37.410Z,100608.47
2022-08-21T09:23:03.047Z,100612.34
2022-08-21T09:26:14.978Z,100609.03
2022-08-21T09:29:21.373Z,100608.47
2022-08-21T09:32:37.816Z,100595.97
2022-08-21T09:35:51.867Z,100604.47
2022-08-21T09:38:56.128Z,100608.53
2022-08-21T09:42:07.381Z,100609.03
2022-08-21T09:45:19.012Z,100609.31
2022-08-21T09:48:27.150Z,100614.97
2022-08-21T09:51:39.884Z,100606.19
2022-08-21T09:54:42.175Z,100608.94
2022-08-21T09:57:50.520Z,100605.66
2022-08-21T10:01:01.743Z,100603.38
2022-08-21T10:04:05.919Z,100601.84
2022-08-21T10:07:13.677Z,100595.56
2022-08-21T10:10:37.514Z,100597.34
2022-08-21T10:13:46.089Z,100596.38
2022-08-21T10:16:47.683Z,100588.47
2022-08-21T10:20:01.896Z,100581.75
2022-08-21T10:23:15.531Z,100585.91
2022-08-21T10:26:44.881Z,100586.59
2022-08-21T10:29:58.214Z,100577.78
2022-08-21T10:33:21.632Z,100583.13
2022-08-21T10:36:40.522Z,100574.69
2022-08-21T10:39:57.346Z,100573.53
2022-08-21T10:43:26.037Z,100569.47
2022-08-21T10:46:47.565Z,100578.59
2022-08-21T10:50:24.291Z,100576.59
2022-08-21T10:53:46.301Z,100561.88
2022-08-21T10:56:50.620Z,100572.09
2022-08-21T11:00:00.818Z,100559.97
2022-08-21T11:03:11.838Z,100564.97
2022-08-21T11:06:24.970Z,100567.34
2022-08-21T11:09:27.747Z,100561.47
2022-08-21T11:12:40.650Z,100562.00
2022-08-21T11:15:53.895Z,100568.03
2022-08-21T11:19:08.827Z,100563.81
2022-08-21T11:22:27.633Z,100567.47
2022-08-21T11:25:41.066Z,100563.00
2022-08-21T11:29:19.614Z,100561.06
2022-08-21T11:32:24.220Z,100556.03
2022-08-21T11:35:50.653Z,100553.66
2022-08-21T11:39:02.497Z,100554.53
2022-08-21T11:42:29.679Z,100547.41
2022-08-21T11:45:45.880Z,100547.72
2022-08-21T11:48:50.379Z,100559.13
2022-08-21T11:52:21.262Z,100553.75
2022-08-21T11:55:28.888Z,100551.75
2022-08-21T11:58:45.241Z,100548.28
2022-08-21T12:01:47.346Z,100553.59
2022-08-21T12:05:00.623Z,100557.41
2022-08-21T12:08:10.091Z,100548.41
2022-08-21T12:11:30.564Z,100549.34
2022-08-21T12:14:45.944Z,100544.91
2022-08-21T12:18:07.473Z,100551.84
2022-08-21T12:21:22.087Z,100544.09
2022-08-21T12:24:45.262Z,100547.69
2022-08-21T12:27:52.827Z,100552.03
2022-08-21T12:30:57.957Z,100548.84
2022-08-21T12:34:05.463Z,100539.38
2022-08-21T12:37:26.861Z,100543.63
2022-08-21T12:40:50.048Z,100541.44
2022-08-21T12:44:05.125Z,100535.84
2022-08-21T12:47:15.944Z,100531.31
2022-08-21T12:50:29.832Z,100531.84
2022-08-21T12:53:45.206Z,100538.75
2022-08-21T12:56:57.958Z,100530.47
2022-08-21T13:00:01.944Z,100536.94
2022-08-21T13:03:04.301Z,100530.06
2022-08-21T13:06:07.692Z,100528.34
2022-08-21T13:09:16.362Z,100525.50
2022-08-21T13:12:21.309Z,100526.75
2022-08-21T13:15:33.456Z,100518.06
2022-08-21T13:18:40.354Z,100524.25
2022-08-21T13:21:45.857Z,100520.78
2022-08-21T13:24:49.427Z,100526.50
2022-08-21T13:28:12.575Z,100524.94
2022-08-21T13:31:23.549Z,100515.16
2022-08-21T13:34:30.440Z,100520.47
2022-08-21T13:37:32.183Z,100514.53
2022-08-21T13:40:43.795Z,100514.56
2022-08-21T13:43:49.841Z,100519.72
2022-08-21T13:46:51.625Z,100522.94
2022-08-21T13:49:58.956Z,100517.03
2022-08-21T13:53:04.243Z,100520.19
2022-08-21T13:56:06.112Z,100515.72
2022-08-21T13:59:07.818Z,100519.06
2022-08-21T14:02:12.455Z,100516.63
2022-08-21T14:05:22.219Z,100520.03
2022-08-21T14:08:40.990Z,100514.22
2022-08-21T14:11:42.745Z,100512.22
2022-08-21T14:14:45.640Z,100511.22
2022-08-21T14:17:47.355Z,100514.22
2022-08-21T14:20:50.244Z,100515.25
2022-08-21T14:24:24.395Z,100519.09
2022-08-21T14:27:26.484Z,100518.88
2022-08-21T14:30:34.355Z,100516.50
2022-08-21T14:33:36.630Z,100516.72
2022-08-21T14:36:38.426Z,100513.75
2022-08-21T14:39:44.655Z,100518.13
2022-08-21T14:42:47.856Z,100515.34
2022-08-21T14:45:49.625Z,100502.28
2022-08-21T14:48:51.911Z,100502.88
2022-08-21T14:51:57.885Z,100510.94
2022-08-21T14:54:59.698Z,100504.00
2022-08-21T14:58:01.593Z,100503.25
2022-08-21T15:01:04.923Z,100505.81
2022-08-21T15:04:06.797Z,100496.13
2022-08-21T15:07:08.602Z,100489.00
2022-08-21T15:10:10.338Z,100493.88
2022-08-21T15:13:12.495Z,100501.69
2022-08-21T15:16:14.464Z,100497.47
2022-08-21T15:19:16.131Z,100506.34
2022-08-21T15:22:19.066Z,100501.88
2022-08-21T15:25:29.846Z,100505.00
2022-08-21T15:28:31.848Z,100506.28
2022-08-21T15:31:34.110Z,100501.16
2022-08-21T15:34:35.723Z,100503.25
2022-08-21T15:37:37.377Z,100507.19
2022-08-21T15:40:39.889Z,100506.88
2022-08-21T15:43:52.463Z,100504.06
2022-08-21T15:46:54.350Z,100507.16
2022-08-21T15:49:55.971Z,100500.41
2022-08-21T15:52:57.602Z,100496.47
2022-08-21T15:56:02.988Z,100498.47
2022-08-21T15:59:13.573Z,100502.28
2022-08-21T16:02:33.769Z,100496.41
2022-08-21T16:05:35.440Z,100500.84
2022-08-21T16:08:37.104Z,100502.09
2022-08-21T16:11:39.750Z,100501.44
2022-08-21T16:14:41.423Z,100503.69
2022-08-21T16:17:48.659Z,100494.56
2022-08-21T16:20:50.322Z,100496.44
2022-08-21T16:23:52.039Z,100496.19
2022-08-21T16:26:58.084Z,100489.63
2022-08-21T16:30:01.173Z,100487.06
2022-08-21T16:33:05.159Z,100487.88
2022-08-21T16:36:07.990Z,100486.97
2022-08-21T16:39:09.865Z,100487.78
2022-08-21T16:42:16.098Z,100489.22
2022-08-21T16:45:22.297Z,100489.19
2022-08-21T16:48:24.798Z,100482.59
2022-08-21T16:51:26.455Z,100483.38
2022-08-21T16:54:30.848Z,100484.56
2022-08-21T16:57:32.750Z,100480.72
2022-08-21T17:00:35.402Z,100473.28
2022-08-21T17:03:42.574Z,100481.88
2022-08-21T17:06:44.249Z,100481.97
2022-08-21T17:09:45.901Z,100486.75
2022-08-21T17:12:55.994Z,100480.94
2022-08-21T17:15:57.844Z,100485.03
2022-08-21T17:18:59.475Z,100482.97
2022-08-21T17:22:01.326Z,100488.13
2022-08-21T17:25:03.339Z,100491.34
2022-08-21T17:28:05.098Z,100492.88
2022-08-21T17:31:10.578Z,100491.09
2022-08-21T17:34:13.016Z,100488.69
2022-08-21T17:37:14.913Z,100489.63
2022-08-21T17:40:17.201Z,100490.91
2022-08-21T17:43:19.209Z,100486.56
2022-08-21T17:46:24.271Z,100496.72
2022-08-21T17:49:25.942Z,100502.50
2022-08-21T17:52:27.552Z,100504.25
2022-08-21T17:55:30.267Z,100505.19
2022-08-21T17:58:32.520Z,100500.94
2022-08-21T18:01:42.508Z,100502.88
2022-08-21T18:04:44.171Z,100505.22
2022-08-21T18:07:45.949Z,100516.19
2022-08-21T18:10:50.493Z,100513.16
2022-08-21T18:13:54.120Z,100511.34
2022-08-21T18:16:56.325Z,100518.56
2022-08-21T18:19:59.591Z,100528.50
2022-08-21T18:23:01.284Z,100528.72
2022-08-21T18:26:03.057Z,100526.22
2022-08-21T18:29:09.928Z,100530.03
2022-08-21T18:32:30.289Z,100542.00
2022-08-21T18:35:33.556Z,100543.25
2022-08-21T18:38:35.828Z,100536.31
2022-08-21T18:41:37.562Z,100540.09
2022-08-21T18:44:41.274Z,100541.97
2022-08-21T18:47:48.073Z,100549.16
2022-08-21T18:50:50.358Z,100544.94
2022-08-21T18:53:53.822Z,100546.13
2022-08-21T18:56:57.827Z,100551.59
2022-08-21T18:59:59.633Z,100557.91
2022-08-21T19:06:24.548Z,100560.47
2022-08-21T19:09:26.179Z,100568.63
2022-08-21T19:12:29.667Z,100576.47
2022-08-21T19:15:35.461Z,100570.88
2022-08-21T19:18:41.216Z,100577.81
2022-08-21T19:21:44.621Z,100580.50
2022-08-21T19:24:49.692Z,100582.03
2022-08-21T19:27:52.097Z,100583.72
2022-08-21T19:31:05.286Z,100575.91
2022-08-21T19:34:15.845Z,100575.69
2022-08-21T19:37:18.315Z,100571.97
2022-08-21T19:40:22.271Z,100569.06
2022-08-21T19:43:29.185Z,100572.59
2022-08-21T19:46:36.271Z,100574.13
2022-08-21T19:49:41.780Z,100579.38
2022-08-21T19:52:51.212Z,100579.19
2022-08-21T19:55:53.278Z,100579.13
2022-08-21T19:58:55.982Z,100577.22
2022-08-21T20:01:57.590Z,100576.34
2022-08-21T20:04:59.205Z,100573.56
2022-08-21T20:08:01.028Z,100588.66
2022-08-21T20:11:04.221Z,100586.56
2022-08-21T20:14:09.187Z,100591.81
2022-08-21T20:17:13.967Z,100585.31
2022-08-21T20:20:15.662Z,100583.41
2022-08-21T20:23:18.454Z,100592.03
2022-08-21T20:26:32.439Z,100588.25
2022-08-21T20:29:39.217Z,100587.53
2022-08-21T20:32:41.136Z,100590.19
2022-08-21T20:35:48.497Z,100588.13
2022-08-21T20:38:53.749Z,100592.16
2022-08-21T20:41:56.565Z,100592.81
2022-08-21T20:44:58.478Z,100590.69
2022-08-21T20:48:48.883Z,100587.47
2022-08-21T20:51:58.669Z,100593.53
2022-08-21T20:55:09.901Z,100591.97
2022-08-21T20:58:24.349Z,100593.13
2022-08-21T21:01:34.281Z,100583.88
2022-08-21T21:05:10.502Z,100592.47
2022-08-21T21:08:30.019Z,100602.09
2022-08-21T21:15:05.333Z,100602.84
2022-08-21T21:18:13.094Z,100598.03
2022-08-21T21:21:32.858Z,100606.47
2022-08-21T21:24:54.469Z,100598.53
2022-08-21T21:28:26.234Z,100606.25
2022-08-21T21:31:28.675Z,100610.28
2022-08-21T21:34:35.640Z,100608.72
2022-08-21T21:37:37.122Z,100609.34
2022-08-21T21:41:03.030Z,100618.75
2022-08-21T21:44:16.752Z,100621.22
2022-08-21T21:47:18.280Z,100619.44
2022-08-21T21:50:46.192Z,100626.97
2022-08-21T21:54:09.112Z,100621.16
2022-08-21T21:57:39.816Z,100617.91
2022-08-21T22:00:52.303Z,100621.47
2022-08-21T22:03:54.491Z,100615.94
2022-08-21T22:07:28.619Z,100630.50
2022-08-21T22:10:48.103Z,100635.66
2022-08-21T22:14:15.372Z,100633.53
2022-08-21T22:17:26.059Z,100628.56
2022-08-21T22:20:46.805Z,100633.38
2022-08-21T22:23:52.948Z,100624.53
2022-08-21T22:27:01.930Z,100630.25
2022-08-21T22:30:09.908Z,100630.84
2022-08-21T22:33:20.141Z,100626.59
2022-08-21T22:36:22.652Z,100622.63
2022-08-21T22:43:02.460Z,100623.34
2022-08-21T22:46:06.791Z,100631.72
2022-08-21T22:49:25.184Z,100628.91
2022-08-21T22:52:37.645Z,100627.63
2022-08-21T22:55:52.579Z,100623.50
2022-08-21T22:59:01.693Z,100635.47
2022-08-21T23:02:28.866Z,100628.47
2022-08-21T23:05:30.523Z,100626.91
2022-08-21T23:08:36.487Z,100636.06
2022-08-21T23:11:42.735Z,100635.47
2022-08-21T23:14:44.551Z,100642.91
2022-08-21T23:18:01.951Z,100636.47
2022-08-21T23:21:26.029Z,100638.47
2022-08-21T23:24:49.737Z,100638.63
2022-08-21T23:28:01.206Z,100638.88
2022-08-21T23:31:14.521Z,100638.88
2022-08-21T23:34:50.010Z,100634.50
2022-08-21T23:38:21.806Z,100646.44
2022-08-21T23:41:34.346Z,100640.75
2022-08-21T23:45:13.967Z,100645.31
2022-08-21T23:48:42.361Z,100641.75
2022-08-21T23:52:12.176Z,100648.44
2022-08-21T23:55:41.822Z,100644.16
2022-08-21T23:58:59.719Z,100645.59
